Time;durP1;ratioP1;P1;durP2;ratioP2;P2;SDS_P1;SDS_P2;PMS_P1;PMS_P2;Temp;Humidity;BMP_temperature;BMP_pressure;BME280_temperature;BME280_humidity;BME280_pressure;Samples;Min_cycle;Max_cycle;Signal;HPM_P1;HPM_P2
2022/03/18 00:00:18;;;;;;;5.63;2.40;;;14.40;60.30;;;;;;2052890;28;20169;-74
2022/03/18 00:01:16;;;;;;;4.78;2.72;;;14.50;60.40;;;;;;2043971;28;20182;-74
2022/03/18 00:02:17;;;;;;;4.70;2.57;;;14.50;60.50;;;;;;2043929;28;20204;-73
2022/03/18 00:03:15;;;;;;;4.93;2.05;;;14.50;60.40;;;;;;2052724;28;20648;-74
2022/03/18 00:04:14;;;;;;;3.67;2.10;;;14.50;60.50;;;;;;2052939;28;20177;-74
2022/03/18 00:05:13;;;;;;;4.20;2.50;;;14.50;60.50;;;;;;2052791;28;20181;-75
2022/03/18 00:06:16;;;;;;;5.63;2.47;;;14.40;60.30;;;;;;2052991;28;20231;-74
2022/03/18 00:07:15;;;;;;;6.70;3.22;;;14.50;60.40;;;;;;2053004;28;20202;-74
2022/03/18 00:08:14;;;;;;;3.58;2.25;;;14.50;60.30;;;;;;2052955;28;20526;-75
2022/03/18 00:09:13;;;;;;;6.53;3.03;;;14.50;60.50;;;;;;2052947;28;20173;-75
2022/03/18 00:10:13;;;;;;;3.25;2.45;;;14.50;60.50;;;;;;2052914;28;20173;-74
2022/03/18 00:11:12;;;;;;;3.75;2.15;;;14.50;60.40;;;;;;2052827;28;20590;-74
2022/03/18 00:12:12;;;;;;;4.53;2.07;;;14.50;60.40;;;;;;2052656;28;20261;-74
2022/03/18 00:13:11;;;;;;;4.15;2.40;;;14.50;60.40;;;;;;2043936;28;20178;-76
2022/03/18 00:14:09;;;;;;;5.67;2.40;;;14.50;60.40;;;;;;2044067;28;20215;-73
2022/03/18 00:15:09;;;;;;;3.57;2.13;;;14.40;60.30;;;;;;2052424;28;20720;-74
2022/03/18 00:16:09;;;;;;;3.58;2.05;;;14.40;60.30;;;;;;2052914;28;20299;-75
2022/03/18 00:17:09;;;;;;;6.10;2.67;;;14.50;60.50;;;;;;2052910;28;20200;-75
2022/03/18 00:18:07;;;;;;;4.90;2.42;;;14.40;60.30;;;;;;2053112;28;20636;-73
2022/03/18 00:19:06;;;;;;;4.00;2.30;;;14.40;60.30;;;;;;2052895;28;20247;-74
2022/03/18 00:20:07;;;;;;;5.82;3.17;;;14.50;60.40;;;;;;2044039;28;20186;-74
2022/03/18 00:21:07;;;;;;;4.85;2.72;;;14.50;60.40;;;;;;2044235;28;20178;-76
2022/03/18 00:22:06;;;;;;;5.13;2.15;;;14.50;60.30;;;;;;2052149;28;20293;-74
2022/03/18 00:23:05;;;;;;;3.38;2.20;;;14.40;60.30;;;;;;2053108;28;20181;-74
2022/03/18 00:24:05;;;;;;;4.27;2.10;;;14.40;60.30;;;;;;2044205;28;20221;-73
2022/03/18 00:25:06;;;;;;;3.70;2.17;;;14.40;60.30;;;;;;2043964;28;20162;-73
2022/03/18 00:26:05;;;;;;;5.18;2.10;;;14.40;60.30;;;;;;2044030;28;20182;-75
2022/03/18 00:27:05;;;;;;;3.97;2.38;;;14.40;60.20;;;;;;2044248;28;20570;-76
2022/03/18 00:28:04;;;;;;;5.00;2.67;;;14.40;61.00;;;;;;2053046;28;22480;-74
2022/03/18 00:29:03;;;;;;;5.80;2.53;;;14.50;60.40;;;;;;2053611;27;20222;-74
2022/03/18 00:30:04;;;;;;;5.93;2.08;;;14.50;60.30;;;;;;2054533;27;20173;-75
2022/03/18 00:31:03;;;;;;;3.50;2.50;;;14.40;60.20;;;;;;2054488;27;20208;-74
2022/03/18 00:32:02;;;;;;;6.10;2.60;;;14.40;60.30;;;;;;2045455;28;20220;-74
2022/03/18 00:33:01;;;;;;;4.17;2.13;;;14.40;60.30;;;;;;2045622;28;20533;-74
2022/03/18 00:34:00;;;;;;;4.53;2.30;;;14.50;60.40;;;;;;2053677;27;20176;-75
2022/03/18 00:34:59;;;;;;;4.20;2.05;;;14.50;60.50;;;;;;2054486;27;20176;-74
2022/03/18 00:35:58;;;;;;;4.10;2.40;;;14.40;60.40;;;;;;2054333;27;20166;-74
2022/03/18 00:36:56;;;;;;;5.37;2.70;;;14.50;60.40;;;;;;2054439;27;20169;-75
2022/03/18 00:37:55;;;;;;;2.70;1.73;;;14.50;60.30;;;;;;2045257;28;20657;-74
2022/03/18 00:38:53;;;;;;;3.20;2.23;;;14.50;60.30;;;;;;2037207;28;20183;-75
2022/03/18 00:39:56;;;;;;;3.77;2.03;;;14.50;60.40;;;;;;2036696;28;20182;-74
2022/03/18 00:40:56;;;;;;;6.72;2.13;;;14.60;60.50;;;;;;2045490;28;20170;-75
2022/03/18 00:41:54;;;;;;;5.80;3.13;;;14.50;60.40;;;;;;2054132;27;20191;-74
2022/03/18 00:42:53;;;;;;;3.90;2.50;;;14.50;60.30;;;;;;2054369;27;20176;-75
2022/03/18 00:43:52;;;;;;;3.37;2.13;;;14.50;60.30;;;;;;2054246;27;20165;-74
2022/03/18 00:44:52;;;;;;;6.55;2.30;;;14.40;60.30;;;;;;2054210;27;20169;-74
2022/03/18 00:45:51;;;;;;;3.30;1.90;;;14.40;60.40;;;;;;2054190;27;20165;-75
2022/03/18 00:46:49;;;;;;;4.10;1.90;;;14.40;60.40;;;;;;2054058;27;20717;-74
2022/03/18 00:52:59;;;;;;;4.55;2.33;;;14.60;60.50;;;;;;2054527;27;20157;-73
2022/03/18 00:53:58;;;;;;;5.15;2.47;;;14.40;60.30;;;;;;2054389;27;20650;-74
2022/03/18 00:54:57;;;;;;;2.70;2.07;;;14.40;60.30;;;;;;2054433;27;20177;-74
2022/03/18 00:55:56;;;;;;;5.10;2.15;;;14.40;60.40;;;;;;2045284;28;20674;-74
2022/03/18 00:56:54;;;;;;;3.73;2.10;;;14.40;60.40;;;;;;2045309;28;20253;-75
2022/03/18 00:57:53;;;;;;;7.40;2.83;;;14.40;61.00;;;;;;2052995;27;20161;-74
2022/03/18 00:58:51;;;;;;;3.90;2.50;;;14.40;60.40;;;;;;2054220;27;20601;-74
2022/03/18 00:59:51;;;;;;;5.07;2.83;;;14.40;60.40;;;;;;2054217;27;20191;-74
2022/03/18 01:00:49;;;;;;;3.13;1.80;;;14.40;60.30;;;;;;2054200;27;20209;-74
2022/03/18 01:01:52;;;;;;;3.60;2.43;;;14.40;60.40;;;;;;2054101;27;20249;-74
2022/03/18 01:02:50;;;;;;;3.25;2.30;;;14.40;60.40;;;;;;2045180;28;20170;-75
2022/03/18 01:03:49;;;;;;;5.53;2.43;;;14.40;60.40;;;;;;2045492;28;20177;-74
2022/03/18 01:04:49;;;;;;;3.50;2.70;;;14.40;60.40;;;;;;2053671;27;20162;-74
2022/03/18 01:05:48;;;;;;;4.72;2.15;;;14.40;60.30;;;;;;2045147;28;20669;-74
2022/03/18 01:06:49;;;;;;;4.10;2.07;;;14.40;60.30;;;;;;2045540;28;20196;-74
2022/03/18 01:07:48;;;;;;;6.18;1.90;;;14.40;60.20;;;;;;2053903;27;20169;-74
2022/03/18 01:08:46;;;;;;;3.57;2.53;;;14.40;60.30;;;;;;2054019;27;20197;-74
2022/03/18 01:09:45;;;;;;;3.70;1.80;;;14.40;60.30;;;;;;2054182;27;20209;-74
2022/03/18 01:10:44;;;;;;;4.53;2.73;;;14.40;60.30;;;;;;2054332;27;20168;-74
2022/03/18 01:11:44;;;;;;;6.07;2.75;;;14.40;60.30;;;;;;2045075;28;20226;-75
2022/03/18 01:12:43;;;;;;;5.82;2.20;;;14.40;60.30;;;;;;2036713;28;20167;-74
2022/03/18 01:13:41;;;;;;;3.60;2.37;;;14.40;61.00;;;;;;2044422;28;20178;-74
2022/03/18 01:14:40;;;;;;;5.53;2.20;;;14.40;60.30;;;;;;2053427;27;20169;-74
2022/03/18 01:15:38;;;;;;;5.50;2.47;;;14.50;60.40;;;;;;2054164;27;20711;-74
2022/03/18 01:16:37;;;;;;;3.03;1.87;;;14.40;60.50;;;;;;2053877;27;20464;-74
2022/03/18 01:17:36;;;;;;;3.33;1.87;;;14.40;60.40;;;;;;2053913;27;20199;-74
2022/03/18 01:18:34;;;;;;;3.17;2.30;;;14.30;60.30;;;;;;2052796;27;20241;-74
2022/03/18 01:19:34;;;;;;;3.63;2.60;;;14.40;60.30;;;;;;2045269;28;20419;-74
2022/03/18 01:20:35;;;;;;;3.60;2.22;;;14.40;60.30;;;;;;2045268;28;20184;-74
2022/03/18 01:21:33;;;;;;;5.10;2.35;;;14.40;60.30;;;;;;2053747;27;20626;-74
2022/03/18 01:22:32;;;;;;;3.33;2.00;;;14.40;60.20;;;;;;2053968;27;20234;-74
2022/03/18 01:23:30;;;;;;;3.73;2.10;;;14.40;60.30;;;;;;2053900;27;20185;-74
2022/03/18 01:24:29;;;;;;;4.30;2.50;;;14.40;60.20;;;;;;2053847;27;20177;-75
2022/03/18 01:25:27;;;;;;;6.10;2.47;;;14.40;60.30;;;;;;2053884;27;20305;-74
2022/03/18 01:26:26;;;;;;;3.47;2.40;;;14.40;60.30;;;;;;2053893;27;20510;-74
2022/03/18 01:27:24;;;;;;;3.17;2.53;;;14.50;60.40;;;;;;2045326;28;20173;-74
2022/03/18 01:28:23;;;;;;;4.13;2.30;;;14.40;60.30;;;;;;2045115;28;20198;-74
2022/03/18 01:29:21;;;;;;;4.40;2.40;;;14.10;60.10;;;;;;2053299;27;20241;-74
2022/03/18 01:30:20;;;;;;;3.33;2.13;;;14.40;60.40;;;;;;2053905;27;20410;-74
2022/03/18 01:31:19;;;;;;;3.63;1.90;;;14.40;60.40;;;;;;2036937;28;20174;-73
2022/03/18 01:32:17;;;;;;;5.43;3.13;;;14.40;60.40;;;;;;2036818;28;20218;-74
2022/03/18 01:33:16;;;;;;;3.43;2.00;;;14.40;60.40;;;;;;2052808;27;20169;-74
2022/03/18 01:34:15;;;;;;;4.20;2.13;;;14.40;60.30;;;;;;2054130;27;20272;-73
2022/03/18 01:35:13;;;;;;;5.80;2.80;;;14.40;60.40;;;;;;2044554;28;20182;-74
2022/03/18 01:36:13;;;;;;;4.60;2.73;;;14.40;60.30;;;;;;2045397;28;20439;-73
2022/03/18 01:37:11;;;;;;;7.10;2.28;;;14.40;60.40;;;;;;2044550;28;20166;-75
2022/03/18 01:38:11;;;;;;;5.30;2.90;;;14.40;60.40;;;;;;2045004;28;20184;-74
2022/03/18 01:39:10;;;;;;;3.50;2.13;;;14.40;60.30;;;;;;2053616;27;20386;-74
2022/03/18 01:40:09;;;;;;;5.93;2.90;;;14.30;60.20;;;;;;2053339;27;20341;-74
2022/03/18 01:41:14;;;;;;;4.20;2.38;;;14.40;60.30;;;;;;2053438;27;20285;-74
2022/03/18 01:42:12;;;;;;;3.28;2.17;;;14.30;60.30;;;;;;2053698;27;20248;-74
2022/03/18 01:43:11;;;;;;;6.53;2.60;;;14.40;60.30;;;;;;2053729;27;20184;-75
2022/03/18 01:44:11;;;;;;;5.17;2.70;;;14.30;60.30;;;;;;2053800;27;20173;-73
2022/03/18 01:45:09;;;;;;;3.72;2.22;;;14.30;60.20;;;;;;2053937;27;20177;-73
2022/03/18 01:46:09;;;;;;;3.20;2.03;;;14.30;60.30;;;;;;2053784;27;20484;-74
2022/03/18 01:47:09;;;;;;;6.88;2.67;;;14.40;60.40;;;;;;2053803;27;20165;-74
2022/03/18 01:48:07;;;;;;;4.40;2.70;;;14.30;60.20;;;;;;2045029;28;20268;-75
2022/03/18 01:49:07;;;;;;;2.73;2.00;;;14.30;60.20;;;;;;2037136;28;20178;-74
2022/03/18 01:50:06;;;;;;;2.60;1.90;;;14.30;60.30;;;;;;2044678;28;20626;-74
2022/03/18 01:51:07;;;;;;;3.43;2.00;;;14.40;60.30;;;;;;2053757;27;20280;-74
2022/03/18 01:52:08;;;;;;;6.15;2.63;;;14.30;60.20;;;;;;2054422;27;20189;-75
2022/03/18 01:53:07;;;;;;;3.28;2.00;;;14.30;60.30;;;;;;2055051;27;20204;-74
2022/03/18 01:55:24;;;;;;;4.20;2.30;;;14.30;60.30;;;;;;2057023;27;20873;-74
2022/03/18 01:56:22;;;;;;;4.00;2.42;;;14.40;60.20;;;;;;2056815;27;20158;-74
2022/03/18 01:57:23;;;;;;;4.33;2.07;;;14.40;60.40;;;;;;2055469;27;20242;-75
2022/03/18 01:58:22;;;;;;;3.50;1.80;;;14.30;60.20;;;;;;2056596;27;20218;-74
2022/03/18 01:59:21;;;;;;;4.38;1.70;;;14.30;60.20;;;;;;2057600;27;20234;-74
2022/03/18 02:00:20;;;;;;;5.23;2.30;;;14.30;60.20;;;;;;2057501;27;20177;-74
2022/03/18 02:01:19;;;;;;;4.00;2.10;;;14.40;60.30;;;;;;2058336;27;20263;-75
2022/03/18 02:02:19;;;;;;;4.70;2.40;;;14.30;60.30;;;;;;2058082;27;20280;-75
2022/03/18 02:03:18;;;;;;;4.22;2.25;;;14.40;60.40;;;;;;2059411;27;20172;-73
2022/03/18 02:04:17;;;;;;;3.83;2.13;;;14.30;60.30;;;;;;2056160;27;20531;-75
2022/03/18 02:05:15;;;;;;;4.00;2.30;;;14.40;60.40;;;;;;2055067;27;20257;-76
2022/03/18 02:06:14;;;;;;;6.63;1.80;;;14.30;60.30;;;;;;2046783;28;20909;-75
2022/03/18 02:07:13;;;;;;;2.43;1.70;;;14.30;60.30;;;;;;2049449;28;20503;-75
2022/03/18 02:08:15;;;;;;;5.93;2.30;;;14.30;60.30;;;;;;2052497;28;20680;-73
2022/03/18 02:09:13;;;;;;;3.80;2.00;;;14.30;60.30;;;;;;2061908;27;20173;-73
2022/03/18 02:10:12;;;;;;;3.47;2.00;;;14.30;60.30;;;;;;2058383;27;20177;-74
2022/03/18 02:11:12;;;;;;;4.10;2.53;;;14.30;60.30;;;;;;2055707;27;20165;-74
2022/03/18 02:12:11;;;;;;;3.75;2.10;;;14.30;60.30;;;;;;2054973;27;20965;-74
2022/03/18 02:13:10;;;;;;;6.63;1.92;;;14.40;60.30;;;;;;2055178;27;20169;-74
2022/03/18 02:14:08;;;;;;;5.10;2.60;;;14.30;60.20;;;;;;2055311;27;20177;-74
2022/03/18 02:15:09;;;;;;;3.80;1.90;;;14.30;60.20;;;;;;2055429;27;20413;-73
2022/03/18 02:16:07;;;;;;;4.38;2.20;;;14.30;60.30;;;;;;2055627;27;20176;-73
2022/03/18 02:17:08;;;;;;;4.93;2.00;;;14.30;60.30;;;;;;2055519;27;20177;-74
2022/03/18 02:18:06;;;;;;;4.35;2.22;;;14.30;60.40;;;;;;2055658;27;20252;-74
2022/03/18 02:19:06;;;;;;;3.37;2.13;;;14.30;60.40;;;;;;2056349;27;20221;-73
2022/03/18 02:20:05;;;;;;;4.65;2.28;;;14.30;60.30;;;;;;2061494;27;20165;-74
2022/03/18 02:21:04;;;;;;;4.53;1.98;;;14.30;60.30;;;;;;2060854;27;20165;-74
2022/03/18 02:22:08;;;;;;;4.50;2.03;;;14.30;60.30;;;;;;2062223;27;20173;-74
2022/03/18 02:23:07;;;;;;;3.08;2.28;;;14.30;60.10;;;;;;2062575;27;20148;-73
2022/03/18 02:24:07;;;;;;;3.93;2.47;;;14.30;60.30;;;;;;2062720;27;20268;-73
2022/03/18 02:25:12;;;;;;;3.63;2.47;;;14.30;60.30;;;;;;2053854;28;20468;-73
2022/03/18 02:26:15;;;;;;;2.42;1.98;;;14.30;60.20;;;;;;2054297;27;20166;-73
2022/03/18 02:27:14;;;;;;;5.32;1.70;;;14.40;60.30;;;;;;2060947;27;20205;-73
2022/03/18 02:28:13;;;;;;;3.42;2.13;;;14.30;60.30;;;;;;2062048;27;20224;-73
2022/03/18 02:29:11;;;;;;;3.50;2.10;;;14.30;60.30;;;;;;2062185;27;20173;-73
2022/03/18 02:30:10;;;;;;;3.13;2.20;;;14.30;60.20;;;;;;2062501;27;20192;-73
2022/03/18 02:31:09;;;;;;;5.63;2.17;;;14.30;60.20;;;;;;2062414;27;20198;-73
2022/03/18 02:32:08;;;;;;;3.37;2.30;;;14.30;60.20;;;;;;2062454;27;20418;-73
2022/03/18 02:33:07;;;;;;;3.42;1.75;;;14.30;60.20;;;;;;2062723;27;20157;-73
2022/03/18 02:34:05;;;;;;;5.30;2.23;;;14.30;60.30;;;;;;2053828;28;20162;-73
2022/03/18 02:35:04;;;;;;;4.10;2.23;;;14.30;60.30;;;;;;2054162;28;20166;-73
2022/03/18 02:36:03;;;;;;;5.37;2.30;;;14.30;60.20;;;;;;2061545;27;20180;-73
2022/03/18 02:37:04;;;;;;;4.90;2.67;;;14.30;60.30;;;;;;2062448;27;20398;-72
2022/03/18 02:38:02;;;;;;;4.45;1.90;;;14.30;60.30;;;;;;2062011;27;20403;-73
2022/03/18 02:39:01;;;;;;;4.00;2.03;;;14.30;60.20;;;;;;2060601;27;20208;-74
2022/03/18 02:40:00;;;;;;;4.30;2.17;;;14.30;60.20;;;;;;2050664;28;20180;-74
2022/03/18 02:40:58;;;;;;;5.60;2.30;;;14.40;60.30;;;;;;2049740;28;20215;-74
2022/03/18 02:41:57;;;;;;;3.83;1.73;;;14.30;60.20;;;;;;2058043;27;20199;-74
2022/03/18 02:42:58;;;;;;;6.30;2.40;;;14.30;60.20;;;;;;2061024;27;20173;-74
2022/03/18 02:43:56;;;;;;;4.10;1.92;;;14.40;60.40;;;;;;2060530;27;20169;-74
2022/03/18 02:44:55;;;;;;;2.80;1.90;;;14.40;60.40;;;;;;2062672;27;20205;-74
2022/03/18 02:45:53;;;;;;;5.83;1.90;;;14.20;60.20;;;;;;2063053;27;20160;-74
2022/03/18 02:46:52;;;;;;;3.93;2.40;;;14.30;60.30;;;;;;2063045;27;20180;-74
2022/03/18 02:47:50;;;;;;;4.33;2.33;;;14.30;60.30;;;;;;2062910;27;20177;-74
2022/03/18 02:48:49;;;;;;;2.47;1.87;;;14.30;60.30;;;;;;2063095;27;20149;-73
2022/03/18 02:49:47;;;;;;;3.40;1.93;;;14.40;60.40;;;;;;2063044;27;20180;-74
2022/03/18 02:50:46;;;;;;;2.97;2.00;;;14.20;60.20;;;;;;2062745;27;20173;-74
2022/03/18 02:51:44;;;;;;;5.47;2.43;;;14.20;60.20;;;;;;2062665;27;20187;-74
2022/03/18 02:52:45;;;;;;;4.33;2.23;;;14.30;60.20;;;;;;2062962;27;20237;-73
2022/03/18 02:53:44;;;;;;;7.82;2.03;;;14.20;60.20;;;;;;2062762;27;20181;-73
2022/03/18 02:54:45;;;;;;;3.00;1.90;;;14.30;60.40;;;;;;2062737;27;20233;-73
2022/03/18 02:55:43;;;;;;;3.38;1.92;;;14.20;60.20;;;;;;2062859;27;20188;-73
2022/03/18 02:56:42;;;;;;;6.27;2.57;;;14.20;60.20;;;;;;2063206;27;20177;-73
2022/03/18 02:57:41;;;;;;;4.27;2.20;;;14.30;60.30;;;;;;2063041;27;20211;-73
2022/03/18 02:58:39;;;;;;;1.80;1.53;;;14.20;60.20;;;;;;2062896;27;20141;-73
2022/03/18 02:59:38;;;;;;;4.10;2.03;;;14.30;60.40;;;;;;2062992;27;20386;-73
2022/03/18 03:00:37;;;;;;;5.78;1.85;;;14.20;60.20;;;;;;2062963;27;20165;-73
2022/03/18 03:01:36;;;;;;;4.63;2.40;;;14.30;60.40;;;;;;2062475;27;20204;-73
2022/03/18 03:02:34;;;;;;;3.93;2.20;;;14.30;60.30;;;;;;2062869;27;20161;-73
2022/03/18 03:03:33;;;;;;;3.80;2.10;;;14.20;60.20;;;;;;2062800;27;20168;-73
2022/03/18 03:04:31;;;;;;;5.13;2.40;;;14.20;60.20;;;;;;2061394;27;20173;-73
2022/03/18 03:08:05;;;;;;;7.70;2.53;;;14.20;60.20;;;;;;2062736;27;20161;-72
2022/03/18 03:09:05;;;;;;;2.80;1.80;;;14.20;60.20;;;;;;2062936;27;20145;-74
2022/03/18 03:10:05;;;;;;;2.80;1.55;;;14.20;60.30;;;;;;2062929;27;20184;-73
2022/03/18 03:11:04;;;;;;;3.70;2.08;;;14.20;60.20;;;;;;2053987;28;20192;-73
2022/03/18 03:12:03;;;;;;;8.40;2.20;;;14.20;60.30;;;;;;2054341;28;20185;-72
2022/03/18 03:13:05;;;;;;;5.60;2.53;;;14.20;60.20;;;;;;2062295;27;20188;-74
2022/03/18 03:14:04;;;;;;;9.13;2.08;;;14.30;60.30;;;;;;2062572;27;20521;-73
2022/03/18 03:15:03;;;;;;;4.13;2.00;;;14.20;60.20;;;;;;2061699;27;20197;-73
2022/03/18 03:16:02;;;;;;;4.28;2.35;;;14.20;60.30;;;;;;2061742;27;20190;-74
2022/03/18 03:17:01;;;;;;;2.38;1.85;;;14.30;60.40;;;;;;2061768;27;20168;-75
2022/03/18 03:17:59;;;;;;;3.43;2.40;;;14.20;60.30;;;;;;2061838;27;20199;-73
2022/03/18 03:18:58;;;;;;;9.63;2.40;;;14.20;60.20;;;;;;2062410;27;20216;-73
2022/03/18 03:20:00;;;;;;;4.67;1.97;;;14.20;60.20;;;;;;2062610;27;20172;-74
2022/03/18 03:20:58;;;;;;;4.32;2.55;;;14.30;61.20;;;;;;2053788;28;20153;-74
2022/03/18 03:21:57;;;;;;;2.33;1.43;;;14.20;60.30;;;;;;2053668;28;20212;-74
2022/03/18 03:22:56;;;;;;;2.53;2.00;;;14.20;60.30;;;;;;2061812;27;20247;-74
2022/03/18 03:23:55;;;;;;;3.50;1.87;;;14.30;60.40;;;;;;2062244;27;20192;-74
2022/03/18 03:24:55;;;;;;;4.13;2.30;;;14.30;60.30;;;;;;2061674;27;20228;-74
2022/03/18 03:25:54;;;;;;;9.10;2.08;;;14.20;60.20;;;;;;2061914;27;20175;-74
2022/03/18 03:26:52;;;;;;;4.13;1.80;;;14.20;60.20;;;;;;2061422;27;20165;-73
2022/03/18 03:27:55;;;;;;;4.80;2.47;;;14.20;60.20;;;;;;2062232;27;20174;-73
2022/03/18 03:28:53;;;;;;;2.08;1.60;;;14.20;60.20;;;;;;2060319;27;20169;-74
2022/03/18 03:29:52;;;;;;;2.60;2.07;;;14.20;60.10;;;;;;2059612;27;20187;-74
2022/03/18 03:30:50;;;;;;;4.03;1.97;;;14.20;60.20;;;;;;2061809;27;20173;-74
2022/03/18 03:31:48;;;;;;;10.30;2.20;;;14.20;60.20;;;;;;2061490;27;20193;-74
2022/03/18 03:32:48;;;;;;;3.10;1.70;;;14.20;60.30;;;;;;2059370;27;20198;-74
2022/03/18 03:33:46;;;;;;;8.45;3.10;;;14.20;60.20;;;;;;2054900;27;20176;-74
2022/03/18 03:34:45;;;;;;;5.17;2.53;;;14.20;60.20;;;;;;2045513;28;20170;-74
2022/03/18 03:35:43;;;;;;;6.00;2.17;;;14.20;60.20;;;;;;2045453;28;20673;-74
2022/03/18 03:36:42;;;;;;;2.10;1.63;;;14.20;60.20;;;;;;2053560;27;20252;-74
2022/03/18 03:37:41;;;;;;;5.67;2.23;;;14.20;60.20;;;;;;2053919;28;20211;-74
2022/03/18 03:38:40;;;;;;;3.95;1.85;;;14.20;60.20;;;;;;2053746;27;20285;-75
2022/03/18 03:39:39;;;;;;;3.40;2.15;;;14.20;60.20;;;;;;2053671;27;20179;-73
2022/03/18 03:40:38;;;;;;;4.53;2.07;;;14.20;60.20;;;;;;2053513;27;20476;-74
2022/03/18 03:41:38;;;;;;;3.50;2.30;;;14.20;60.20;;;;;;2053414;28;20641;-74
2022/03/18 03:42:39;;;;;;;4.75;2.05;;;14.20;60.20;;;;;;2053538;28;20176;-74
2022/03/18 03:43:38;;;;;;;2.72;1.88;;;14.20;60.10;;;;;;2053740;27;20209;-74
2022/03/18 03:44:37;;;;;;;2.93;2.10;;;14.20;60.20;;;;;;2053412;28;20536;-74
2022/03/18 03:45:36;;;;;;;4.10;2.30;;;14.20;60.10;;;;;;2053644;27;20192;-74
2022/03/18 03:46:38;;;;;;;3.30;1.90;;;14.20;60.10;;;;;;2045005;28;20766;-75
2022/03/18 03:47:38;;;;;;;5.22;2.28;;;14.20;60.10;;;;;;2045087;28;20495;-74
2022/03/18 03:48:37;;;;;;;7.40;2.53;;;14.30;60.10;;;;;;2053248;28;20197;-74
2022/03/18 03:49:35;;;;;;;4.53;2.10;;;14.20;60.10;;;;;;2044763;28;20186;-74
2022/03/18 03:50:36;;;;;;;5.23;2.00;;;14.30;60.20;;;;;;2045006;28;20166;-74
2022/03/18 03:51:36;;;;;;;2.60;1.90;;;14.30;60.10;;;;;;2053073;28;20181;-74
2022/03/18 03:52:35;;;;;;;3.05;2.00;;;14.30;60.00;;;;;;2053617;28;20573;-75
2022/03/18 03:53:34;;;;;;;4.57;1.70;;;14.30;60.10;;;;;;2053331;28;20297;-75
2022/03/18 03:54:32;;;;;;;4.70;2.77;;;14.30;60.00;;;;;;2053205;28;20181;-75
2022/03/18 03:55:34;;;;;;;3.17;2.27;;;14.30;60.00;;;;;;2053015;28;20179;-75
2022/03/18 03:56:34;;;;;;;3.65;1.80;;;14.30;59.90;;;;;;2053062;28;20177;-74
2022/03/18 03:57:32;;;;;;;4.60;1.83;;;14.40;59.90;;;;;;2053039;28;20165;-74
2022/03/18 03:58:31;;;;;;;8.07;2.23;;;14.30;59.80;;;;;;2052981;28;20172;-74
2022/03/18 03:59:31;;;;;;;4.10;2.13;;;14.30;59.70;;;;;;2053051;28;20205;-74
2022/03/18 04:00:31;;;;;;;3.05;1.50;;;14.30;59.50;;;;;;2053042;28;20181;-74
2022/03/18 04:01:30;;;;;;;4.47;2.10;;;14.30;59.50;;;;;;2052897;28;20206;-74
2022/03/18 04:02:29;;;;;;;5.40;2.75;;;14.30;59.60;;;;;;2053024;28;20799;-74
2022/03/18 04:03:28;;;;;;;3.30;2.10;;;14.40;59.60;;;;;;2053024;27;20234;-73
2022/03/18 04:04:27;;;;;;;2.50;2.00;;;14.40;59.40;;;;;;2054400;27;20195;-73
2022/03/18 04:05:25;;;;;;;4.38;2.22;;;14.40;59.40;;;;;;2054479;27;20188;-74
2022/03/18 04:06:24;;;;;;;4.40;2.00;;;14.40;59.40;;;;;;2054740;27;20183;-74
2022/03/18 04:07:24;;;;;;;3.13;1.80;;;14.40;59.40;;;;;;2045951;28;20243;-74
2022/03/18 04:08:23;;;;;;;3.45;2.15;;;14.40;59.30;;;;;;2045772;28;20197;-74
2022/03/18 04:09:27;;;;;;;4.33;1.93;;;14.50;59.20;;;;;;2054487;27;20165;-74
2022/03/18 04:10:25;;;;;;;3.92;2.38;;;14.40;59.30;;;;;;2045841;28;20873;-74
2022/03/18 04:11:24;;;;;;;3.90;2.73;;;14.50;59.80;;;;;;2045817;28;20173;-75
2022/03/18 04:12:24;;;;;;;6.38;1.65;;;14.50;59.30;;;;;;2054083;27;20207;-73
2022/03/18 04:13:23;;;;;;;10.68;1.92;;;14.40;59.10;;;;;;2054731;27;20252;-74
2022/03/18 04:14:22;;;;;;;4.90;1.97;;;14.40;59.00;;;;;;2054754;27;20168;-74
2022/03/18 04:15:21;;;;;;;3.07;1.97;;;14.50;59.30;;;;;;2054316;27;20184;-74
2022/03/18 04:16:21;;;;;;;4.30;1.50;;;14.50;59.20;;;;;;2054475;27;20165;-74
2022/03/18 04:17:19;;;;;;;3.60;1.73;;;14.50;59.00;;;;;;2054682;27;20169;-74
2022/03/18 04:18:18;;;;;;;3.30;1.83;;;14.50;59.20;;;;;;2054594;27;20177;-73
2022/03/18 04:19:20;;;;;;;4.23;1.87;;;14.60;59.30;;;;;;2054466;27;20220;-73
2022/03/18 04:20:21;;;;;;;3.45;2.10;;;14.50;59.00;;;;;;2054500;27;20170;-75
2022/03/18 04:21:20;;;;;;;2.97;1.85;;;14.50;59.10;;;;;;2054457;27;20177;-74
2022/03/18 04:22:21;;;;;;;3.47;2.30;;;14.50;59.10;;;;;;2054544;27;20258;-73
2022/03/18 04:23:20;;;;;;;5.65;1.80;;;14.50;59.00;;;;;;2054256;27;20173;-74
2022/03/18 04:24:19;;;;;;;4.38;1.80;;;14.50;59.00;;;;;;2054672;27;20704;-75
2022/03/18 04:25:22;;;;;;;3.23;1.90;;;14.50;59.00;;;;;;2045619;28;20178;-75
2022/03/18 04:26:21;;;;;;;3.80;2.20;;;14.50;59.10;;;;;;2045719;28;20618;-74
2022/03/18 04:27:21;;;;;;;2.87;1.80;;;14.50;59.00;;;;;;2045613;28;20185;-74
2022/03/18 04:28:19;;;;;;;3.75;2.15;;;14.50;59.00;;;;;;2046126;28;20201;-75
2022/03/18 04:29:18;;;;;;;5.67;2.63;;;14.50;58.90;;;;;;2054245;27;20177;-74
2022/03/18 04:30:16;;;;;;;2.50;1.80;;;14.50;59.00;;;;;;2054470;27;20222;-75
2022/03/18 04:31:15;;;;;;;3.00;1.40;;;14.50;59.00;;;;;;2045648;28;20249;-74
2022/03/18 04:32:15;;;;;;;5.80;2.17;;;14.50;59.10;;;;;;2045628;28;20423;-74
2022/03/18 04:33:16;;;;;;;5.40;2.72;;;14.50;59.00;;;;;;2045445;28;20169;-74
2022/03/18 04:34:15;;;;;;;4.43;2.10;;;14.50;59.00;;;;;;2045767;28;20178;-74
2022/03/18 04:35:15;;;;;;;3.47;2.00;;;14.50;59.10;;;;;;2054553;27;20161;-74
2022/03/18 04:36:13;;;;;;;4.85;1.73;;;14.50;59.00;;;;;;2054381;27;20252;-74
2022/03/18 04:37:11;;;;;;;5.33;1.83;;;14.50;59.00;;;;;;2045521;28;20177;-74
2022/03/18 04:38:10;;;;;;;4.47;2.50;;;14.60;59.10;;;;;;2045577;28;20174;-74
2022/03/18 04:39:09;;;;;;;2.30;1.70;;;14.60;59.00;;;;;;2054079;27;20173;-74
2022/03/18 04:40:10;;;;;;;2.60;1.90;;;14.60;59.10;;;;;;2054591;27;20169;-74
2022/03/18 04:41:09;;;;;;;3.60;1.80;;;14.60;58.90;;;;;;2054291;27;20169;-74
2022/03/18 04:42:09;;;;;;;5.33;2.43;;;14.60;58.80;;;;;;2054573;27;20615;-74
2022/03/18 04:43:07;;;;;;;5.53;2.38;;;14.70;59.00;;;;;;2054677;27;20181;-74
2022/03/18 04:44:07;;;;;;;4.73;2.43;;;14.70;59.00;;;;;;2054375;27;20264;-74
2022/03/18 04:45:06;;;;;;;4.30;1.98;;;14.60;58.80;;;;;;2054406;27;20161;-74
2022/03/18 04:46:04;;;;;;;5.97;2.08;;;14.70;59.00;;;;;;2054493;27;20173;-74
2022/03/18 04:47:03;;;;;;;2.10;1.90;;;14.70;59.00;;;;;;2045528;28;20166;-74
2022/03/18 04:48:02;;;;;;;3.90;2.10;;;14.70;58.90;;;;;;2045387;28;20158;-74
2022/03/18 04:49:00;;;;;;;5.03;1.90;;;14.60;58.90;;;;;;2052102;27;20227;-73
2022/03/18 04:50:00;;;;;;;4.17;1.90;;;14.70;59.10;;;;;;2053798;27;20188;-74
2022/03/18 04:51:00;;;;;;;2.78;1.73;;;14.70;58.90;;;;;;2054858;27;20496;-74
2022/03/18 04:51:59;;;;;;;3.15;2.10;;;14.70;59.00;;;;;;2055042;27;20203;-74
2022/03/18 04:52:58;;;;;;;4.32;1.83;;;14.70;59.00;;;;;;2055326;27;20200;-74
2022/03/18 04:53:57;;;;;;;1.90;1.73;;;14.80;59.10;;;;;;2049024;28;20216;-74
2022/03/18 04:54:57;;;;;;;4.75;2.00;;;14.70;59.10;;;;;;2055544;28;20183;-73
2022/03/18 04:55:55;;;;;;;3.80;1.77;;;14.70;59.10;;;;;;2063856;27;20153;-72
2022/03/18 04:58:13;;;;;;;3.80;1.75;;;14.70;59.00;;;;;;2059046;27;20181;-75
2022/03/18 04:59:11;;;;;;;4.10;1.90;;;14.70;59.10;;;;;;2056999;27;20165;-74
2022/03/18 05:00:11;;;;;;;4.63;2.03;;;14.70;59.10;;;;;;2056485;27;20588;-73
2022/03/18 05:01:10;;;;;;;2.90;1.90;;;14.70;59.10;;;;;;2056193;27;20177;-73
2022/03/18 05:02:10;;;;;;;4.10;1.93;;;14.70;59.10;;;;;;2046027;28;20292;-74
2022/03/18 05:03:10;;;;;;;4.25;1.80;;;14.60;59.00;;;;;;2037991;28;20182;-74
2022/03/18 05:04:08;;;;;;;4.00;1.80;;;14.60;59.00;;;;;;2046017;28;20169;-74
2022/03/18 05:05:11;;;;;;;3.40;1.80;;;14.60;59.00;;;;;;2045797;28;20185;-73
2022/03/18 05:06:09;;;;;;;4.18;2.15;;;14.60;59.00;;;;;;2046383;28;20174;-73
2022/03/18 05:07:08;;;;;;;3.20;1.67;;;14.60;59.00;;;;;;2054769;27;20490;-73
2022/03/18 05:08:09;;;;;;;2.78;1.88;;;14.70;59.30;;;;;;2045674;28;20253;-73
2022/03/18 05:09:08;;;;;;;4.10;1.75;;;14.70;59.20;;;;;;2045593;28;20174;-74
2022/03/18 05:10:08;;;;;;;2.53;2.13;;;14.60;59.20;;;;;;2054070;27;20177;-73
2022/03/18 05:11:08;;;;;;;5.75;2.53;;;14.60;59.20;;;;;;2054213;27;20178;-75
2022/03/18 05:12:09;;;;;;;4.10;1.75;;;14.60;59.20;;;;;;2054219;27;20245;-74
2022/03/18 05:13:08;;;;;;;4.25;2.08;;;14.60;59.20;;;;;;2054255;27;20172;-74
2022/03/18 05:14:06;;;;;;;3.03;2.03;;;14.60;59.00;;;;;;2054029;27;20173;-74
2022/03/18 05:15:06;;;;;;;3.57;1.90;;;14.60;59.10;;;;;;2053784;27;20637;-74
2022/03/18 05:16:05;;;;;;;3.38;2.00;;;14.60;59.20;;;;;;2054080;27;20196;-74
2022/03/18 05:17:05;;;;;;;2.63;2.42;;;14.60;59.10;;;;;;2053711;27;20173;-73
2022/03/18 05:18:04;;;;;;;4.13;1.60;;;14.60;59.10;;;;;;2053815;27;20541;-74
2022/03/18 05:19:02;;;;;;;3.47;2.33;;;14.60;59.20;;;;;;2053889;27;20223;-74